sensor_id;sensor_type;location;lat;lon;timestamp;pressure;altitude;pressure_sealevel;temperature;humidity
12722;BME280;6425;50.316;8.114;2023-04-05T00:00:00;997;;;1;70.1
12722;BME280;6425;50.316;8.114;2023-04-05T00:03:00;997;;;0.9;71
12722;BME280;6425;50.316;8.114;2023-04-05T00:06:00;997;;;0.9;71
12722;BME280;6425;50.316;8.114;2023-04-05T00:09:01;997;;;0.9;71.5
12722;BME280;6425;50.316;8.114;2023-04-05T00:12:00;997;;;0.7;71.9
12722;BME280;6425;50.316;8.114;2023-04-05T00:15:00;997;;;0.7;72
12722;BME280;6425;50.316;8.114;2023-04-05T00:18:00;997;;;0.8;71.7
12722;BME280;6425;50.316;8.114;2023-04-05T00:21:00;997;;;0.6;72.4
12722;BME280;6425;50.316;8.114;2023-04-05T00:24:00;997;;;0.3;73.3
12722;BME280;6425;50.316;8.114;2023-04-05T00:27:00;997;;;0.4;73.9
12722;BME280;6425;50.316;8.114;2023-04-05T00:30:00;997;;;0.3;73.8
12722;BME280;6425;50.316;8.114;2023-04-05T00:33:00;997;;;0.2;74.5
12722;BME280;6425;50.316;8.114;2023-04-05T00:36:07;997;;;0.2;74.8
12722;BME280;6425;50.316;8.114;2023-04-05T00:39:00;997;;;0.1;75.6
12722;BME280;6425;50.316;8.114;2023-04-05T00:42:01;997;;;0;76
12722;BME280;6425;50.316;8.114;2023-04-05T00:45:00;997;;;-0.3;76.8
12722;BME280;6425;50.316;8.114;2023-04-05T00:48:00;997;;;-0.6;78.5
12722;BME280;6425;50.316;8.114;2023-04-05T00:51:00;997;;;-0.6;79.2
12722;BME280;6425;50.316;8.114;2023-04-05T00:54:00;997;;;-0.6;79.6
12722;BME280;6425;50.316;8.114;2023-04-05T00:57:00;997;;;-0.5;79.2
12722;BME280;6425;50.316;8.114;2023-04-05T01:00:00;997;;;-0.2;78.2
12722;BME280;6425;50.316;8.114;2023-04-05T01:03:00;997;;;-0.1;77.5
12722;BME280;6425;50.316;8.114;2023-04-05T01:06:03;997;;;0;76.5
12722;BME280;6425;50.316;8.114;2023-04-05T01:09:03;997;;;0.2;76.4
12722;BME280;6425;50.316;8.114;2023-04-05T01:12:00;997;;;0.2;75.8
12722;BME280;6425;50.316;8.114;2023-04-05T01:15:00;997;;;0.2;75.8
12722;BME280;6425;50.316;8.114;2023-04-05T01:18:00;997;;;-0.3;76.3
12722;BME280;6425;50.316;8.114;2023-04-05T01:21:01;997;;;-0.3;77.5
12722;BME280;6425;50.316;8.114;2023-04-05T01:24:02;997;;;0.1;77.1
12722;BME280;6425;50.316;8.114;2023-04-05T01:27:01;997;;;0.3;75.8
12722;BME280;6425;50.316;8.114;2023-04-05T01:30:02;997;;;0.4;74.7
12722;BME280;6425;50.316;8.114;2023-04-05T01:33:02;997;;;0.5;74
12722;BME280;6425;50.316;8.114;2023-04-05T01:36:00;997;;;0.7;72.9
12722;BME280;6425;50.316;8.114;2023-04-05T01:39:00;997;;;0.7;72
12722;BME280;6425;50.316;8.114;2023-04-05T01:42:00;997;;;0.6;72.1
12722;BME280;6425;50.316;8.114;2023-04-05T01:45:00;997;;;0.3;72.2
12722;BME280;6425;50.316;8.114;2023-04-05T01:48:00;997;;;0.1;73.8
12722;BME280;6425;50.316;8.114;2023-04-05T01:51:00;997;;;0.1;74.1
12722;BME280;6425;50.316;8.114;2023-04-05T01:54:00;997;;;0.1;74.6
12722;BME280;6425;50.316;8.114;2023-04-05T01:57:00;997;;;0.2;74.5
12722;BME280;6425;50.316;8.114;2023-04-05T02:00:00;997;;;0.2;73.8
12722;BME280;6425;50.316;8.114;2023-04-05T02:03:00;997;;;0.3;73.1
12722;BME280;6425;50.316;8.114;2023-04-05T02:06:00;997;;;0.2;72.6
12722;BME280;6425;50.316;8.114;2023-04-05T02:09:00;997;;;-0.3;74.3
12722;BME280;6425;50.316;8.114;2023-04-05T02:12:00;997;;;-0.4;75
12722;BME280;6425;50.316;8.114;2023-04-05T02:15:00;996;;;-0.6;75.2
12722;BME280;6425;50.316;8.114;2023-04-05T02:18:00;996;;;-0.6;75.5
12722;BME280;6425;50.316;8.114;2023-04-05T02:21:00;996;;;-0.6;75.8
12722;BME280;6425;50.316;8.114;2023-04-05T02:24:00;996;;;-0.9;76.3
12722;BME280;6425;50.316;8.114;2023-04-05T02:27:00;997;;;-0.8;76.6
12722;BME280;6425;50.316;8.114;2023-04-05T02:30:00;997;;;-0.8;76.7
12722;BME280;6425;50.316;8.114;2023-04-05T02:33:00;997;;;-0.6;76.6
12722;BME280;6425;50.316;8.114;2023-04-05T02:36:02;997;;;-0.5;76.3
12722;BME280;6425;50.316;8.114;2023-04-05T02:39:00;997;;;-0.4;75
12722;BME280;6425;50.316;8.114;2023-04-05T02:42:00;997;;;-0.5;75
12722;BME280;6425;50.316;8.114;2023-04-05T02:45:00;997;;;-0.7;75.3
12722;BME280;6425;50.316;8.114;2023-04-05T02:48:00;996;;;-0.8;76.1
12722;BME280;6425;50.316;8.114;2023-04-05T02:51:00;997;;;-0.9;76.5
12722;BME280;6425;50.316;8.114;2023-04-05T02:54:00;996;;;-1;77.1
12722;BME280;6425;50.316;8.114;2023-04-05T02:57:00;997;;;-0.9;76.6
12722;BME280;6425;50.316;8.114;2023-04-05T03:00:00;997;;;-2.1;78.8
12722;BME280;6425;50.316;8.114;2023-04-05T03:03:00;997;;;-2.4;82.9
12722;BME280;6425;50.316;8.114;2023-04-05T03:06:01;996;;;-1.8;82.2
12722;BME280;6425;50.316;8.114;2023-04-05T03:09:00;997;;;-1.6;81.5
12722;BME280;6425;50.316;8.114;2023-04-05T03:12:00;996;;;-1.3;80.1
12722;BME280;6425;50.316;8.114;2023-04-05T03:15:00;996;;;-1.6;79.7
12722;BME280;6425;50.316;8.114;2023-04-05T03:18:00;996;;;-1.6;79.9
12722;BME280;6425;50.316;8.114;2023-04-05T03:21:00;996;;;-1.8;80.6
12722;BME280;6425;50.316;8.114;2023-04-05T03:24:00;996;;;-1.5;80.5
12722;BME280;6425;50.316;8.114;2023-04-05T03:27:00;996;;;-1.4;80.4
12722;BME280;6425;50.316;8.114;2023-04-05T03:30:00;996;;;-1.3;79.8
12722;BME280;6425;50.316;8.114;2023-04-05T03:33:00;996;;;-1;78.8
12722;BME280;6425;50.316;8.114;2023-04-05T03:36:00;996;;;-1;78.3
12722;BME280;6425;50.316;8.114;2023-04-05T03:39:00;996;;;-1.1;77.9
12722;BME280;6425;50.316;8.114;2023-04-05T03:42:00;996;;;-1.1;78
12722;BME280;6425;50.316;8.114;2023-04-05T03:45:00;996;;;-1;77.3
12722;BME280;6425;50.316;8.114;2023-04-05T03:48:00;996;;;-0.9;76.5
12722;BME280;6425;50.316;8.114;2023-04-05T03:51:00;996;;;-1;76.7
12722;BME280;6425;50.316;8.114;2023-04-05T03:54:00;996;;;-1.6;76.4
12722;BME280;6425;50.316;8.114;2023-04-05T03:57:00;996;;;-1.5;77.8
12722;BME280;6425;50.316;8.114;2023-04-05T04:00:00;996;;;-1.3;77.8
12722;BME280;6425;50.316;8.114;2023-04-05T04:03:00;996;;;-1.3;77.2
12722;BME280;6425;50.316;8.114;2023-04-05T04:06:00;996;;;-1.3;77.4
12722;BME280;6425;50.316;8.114;2023-04-05T04:09:00;996;;;-1.4;77.1
12722;BME280;6425;50.316;8.114;2023-04-05T04:12:00;996;;;-1.5;77.4
12722;BME280;6425;50.316;8.114;2023-04-05T04:15:00;996;;;-1.6;78.1
12722;BME280;6425;50.316;8.114;2023-04-05T04:18:00;996;;;-1.7;78.5
12722;BME280;6425;50.316;8.114;2023-04-05T04:21:00;996;;;-1.7;78.8
12722;BME280;6425;50.316;8.114;2023-04-05T04:24:00;996;;;-1.6;78.6
12722;BME280;6425;50.316;8.114;2023-04-05T04:27:00;996;;;-1.4;78.1
12722;BME280;6425;50.316;8.114;2023-04-05T04:30:00;996;;;-1.2;77.6
12722;BME280;6425;50.316;8.114;2023-04-05T04:33:00;996;;;-1.2;77
12722;BME280;6425;50.316;8.114;2023-04-05T04:36:04;996;;;-1.2;76.6
12722;BME280;6425;50.316;8.114;2023-04-05T04:39:00;996;;;-1.1;75.9
12722;BME280;6425;50.316;8.114;2023-04-05T04:42:00;996;;;-1.3;75.1
12722;BME280;6425;50.316;8.114;2023-04-05T04:45:00;996;;;-1.3;75.7
12722;BME280;6425;50.316;8.114;2023-04-05T04:48:00;996;;;-1.3;76.7
12722;BME280;6425;50.316;8.114;2023-04-05T04:51:01;996;;;-1.3;77.2
12722;BME280;6425;50.316;8.114;2023-04-05T04:54:00;996;;;-1.3;76.9
12722;BME280;6425;50.316;8.114;2023-04-05T04:57:00;996;;;-1.4;76.1
12722;BME280;6425;50.316;8.114;2023-04-05T05:00:00;996;;;-1.5;76.3
12722;BME280;6425;50.316;8.114;2023-04-05T05:03:00;996;;;-1.7;76.7
12722;BME280;6425;50.316;8.114;2023-04-05T05:06:00;996;;;-1.6;77.5
12722;BME280;6425;50.316;8.114;2023-04-05T05:09:00;996;;;-1.2;77.7
12722;BME280;6425;50.316;8.114;2023-04-05T05:12:00;996;;;-0.9;76.2
12722;BME280;6425;50.316;8.114;2023-04-05T05:15:00;996;;;-0.8;75.3
12722;BME280;6425;50.316;8.114;2023-04-05T05:18:00;996;;;-0.8;74.6
12722;BME280;6425;50.316;8.114;2023-04-05T05:21:00;996;;;-0.8;75
12722;BME280;6425;50.316;8.114;2023-04-05T05:24:00;996;;;-0.9;75.4
12722;BME280;6425;50.316;8.114;2023-04-05T05:27:00;997;;;-1.3;75.6
12722;BME280;6425;50.316;8.114;2023-04-05T05:30:00;996;;;-1.3;77.5
12722;BME280;6425;50.316;8.114;2023-04-05T05:33:00;996;;;-1;78
12722;BME280;6425;50.316;8.114;2023-04-05T05:36:00;996;;;-0.5;77
12722;BME280;6425;50.316;8.114;2023-04-05T05:39:00;996;;;0;75.2
12722;BME280;6425;50.316;8.114;2023-04-05T05:42:00;996;;;0.4;73.4
12722;BME280;6425;50.316;8.114;2023-04-05T05:45:01;996;;;0.8;72.8
12722;BME280;6425;50.316;8.114;2023-04-05T05:48:00;996;;;1.5;71.8
12722;BME280;6425;50.316;8.114;2023-04-05T05:51:00;996;;;2;69.9
12722;BME280;6425;50.316;8.114;2023-04-05T05:54:00;996;;;2.3;68.6
12722;BME280;6425;50.316;8.114;2023-04-05T05:57:00;996;;;2.5;67
12722;BME280;6425;50.316;8.114;2023-04-05T06:00:00;996;;;2.8;66.3
12722;BME280;6425;50.316;8.114;2023-04-05T06:03:00;996;;;3;65.2
12722;BME280;6425;50.316;8.114;2023-04-05T06:06:00;996;;;3.3;62.9
12722;BME280;6425;50.316;8.114;2023-04-05T06:09:00;996;;;3.4;62.4
12722;BME280;6425;50.316;8.114;2023-04-05T06:12:00;996;;;3.1;62.4
12722;BME280;6425;50.316;8.114;2023-04-05T06:15:00;996;;;2.7;62.2
12722;BME280;6425;50.316;8.114;2023-04-05T06:18:00;996;;;0.9;67.1
12722;BME280;6425;50.316;8.114;2023-04-05T06:21:00;996;;;0;69.8
12722;BME280;6425;50.316;8.114;2023-04-05T06:24:00;997;;;-0.9;75.2
12722;BME280;6425;50.316;8.114;2023-04-05T06:27:00;997;;;-0.8;77.9
12722;BME280;6425;50.316;8.114;2023-04-05T06:30:00;997;;;-1.2;78.7
12722;BME280;6425;50.316;8.114;2023-04-05T06:33:00;997;;;-1.4;79.4
12722;BME280;6425;50.316;8.114;2023-04-05T06:36:00;997;;;-1.6;79.8
12722;BME280;6425;50.316;8.114;2023-04-05T06:39:00;997;;;-1.7;80.9
12722;BME280;6425;50.316;8.114;2023-04-05T06:42:00;997;;;-1.6;81.2
12722;BME280;6425;50.316;8.114;2023-04-05T06:45:00;997;;;-1.5;80.6
12722;BME280;6425;50.316;8.114;2023-04-05T06:48:00;996;;;-1.2;81
12722;BME280;6425;50.316;8.114;2023-04-05T06:51:00;996;;;-0.8;79.7
12722;BME280;6425;50.316;8.114;2023-04-05T06:54:00;996;;;-0.3;78.4
12722;BME280;6425;50.316;8.114;2023-04-05T06:57:00;996;;;0.1;76.3
12722;BME280;6425;50.316;8.114;2023-04-05T07:00:00;996;;;0.3;75
12722;BME280;6425;50.316;8.114;2023-04-05T07:03:00;996;;;0.6;73.4
12722;BME280;6425;50.316;8.114;2023-04-05T07:06:00;997;;;0.7;73.4
12722;BME280;6425;50.316;8.114;2023-04-05T07:09:00;996;;;1.6;73.3
12722;BME280;6425;50.316;8.114;2023-04-05T07:12:01;996;;;1.1;71.1
12722;BME280;6425;50.316;8.114;2023-04-05T07:15:00;996;;;0.6;73.1
12722;BME280;6425;50.316;8.114;2023-04-05T07:18:00;996;;;0.7;74.8
12722;BME280;6425;50.316;8.114;2023-04-05T07:21:00;996;;;1.2;72.6
12722;BME280;6425;50.316;8.114;2023-04-05T07:24:00;996;;;0.9;73.6
12722;BME280;6425;50.316;8.114;2023-04-05T07:27:00;996;;;0.3;74.9
12722;BME280;6425;50.316;8.114;2023-04-05T07:30:00;996;;;0.6;75.7
12722;BME280;6425;50.316;8.114;2023-04-05T07:33:00;996;;;0.7;75.2
12722;BME280;6425;50.316;8.114;2023-04-05T07:36:00;996;;;0.8;75.4
12722;BME280;6425;50.316;8.114;2023-04-05T07:39:00;996;;;0.6;75.3
12722;BME280;6425;50.316;8.114;2023-04-05T07:42:00;996;;;1.7;73.5
12722;BME280;6425;50.316;8.114;2023-04-05T07:45:00;996;;;2.8;66.2
12722;BME280;6425;50.316;8.114;2023-04-05T07:48:00;996;;;2.7;66.9
12722;BME280;6425;50.316;8.114;2023-04-05T07:51:03;996;;;3.7;62.2
12722;BME280;6425;50.316;8.114;2023-04-05T07:54:00;996;;;4;59.5
12722;BME280;6425;50.316;8.114;2023-04-05T07:57:00;996;;;3.6;60.8
12722;BME280;6425;50.316;8.114;2023-04-05T08:00:00;996;;;3.3;62.4
12722;BME280;6425;50.316;8.114;2023-04-05T08:03:00;996;;;4;60.2
12722;BME280;6425;50.316;8.114;2023-04-05T08:06:07;996;;;3.9;60.4
12722;BME280;6425;50.316;8.114;2023-04-05T08:09:00;996;;;4.5;60
12722;BME280;6425;50.316;8.114;2023-04-05T08:12:00;996;;;5.2;57.2
12722;BME280;6425;50.316;8.114;2023-04-05T08:15:00;996;;;5.5;56.4
12722;BME280;6425;50.316;8.114;2023-04-05T08:18:00;996;;;5.5;57
12722;BME280;6425;50.316;8.114;2023-04-05T08:21:00;996;;;6;55.4
12722;BME280;6425;50.316;8.114;2023-04-05T08:24:00;996;;;6.7;53.1
12722;BME280;6425;50.316;8.114;2023-04-05T08:27:00;996;;;6.1;53.2
12722;BME280;6425;50.316;8.114;2023-04-05T08:30:00;996;;;6.6;52.7
12722;BME280;6425;50.316;8.114;2023-04-05T08:33:00;996;;;7.6;50.6
12722;BME280;6425;50.316;8.114;2023-04-05T08:36:02;996;;;8.3;48.6
12722;BME280;6425;50.316;8.114;2023-04-05T08:39:00;996;;;8.7;47.7
12722;BME280;6425;50.316;8.114;2023-04-05T08:42:02;996;;;8.5;47.3
12722;BME280;6425;50.316;8.114;2023-04-05T08:45:00;996;;;8.5;46.2
12722;BME280;6425;50.316;8.114;2023-04-05T08:48:00;996;;;8.1;46.7
12722;BME280;6425;50.316;8.114;2023-04-05T08:51:00;996;;;7.8;47.8
12722;BME280;6425;50.316;8.114;2023-04-05T08:54:00;996;;;7;49.7
12722;BME280;6425;50.316;8.114;2023-04-05T08:57:00;996;;;7.2;48
12722;BME280;6425;50.316;8.114;2023-04-05T09:00:00;996;;;7.5;47.6
12722;BME280;6425;50.316;8.114;2023-04-05T09:03:00;996;;;7.6;45
12722;BME280;6425;50.316;8.114;2023-04-05T09:06:00;996;;;6.6;48.8
12722;BME280;6425;50.316;8.114;2023-04-05T09:09:00;996;;;6.7;47.7
12722;BME280;6425;50.316;8.114;2023-04-05T09:12:00;996;;;6.4;49.1
12722;BME280;6425;50.316;8.114;2023-04-05T09:15:00;996;;;7.5;46.4
12722;BME280;6425;50.316;8.114;2023-04-05T09:18:00;996;;;7.4;45.8
12722;BME280;6425;50.316;8.114;2023-04-05T09:21:01;996;;;6.9;45.7
12722;BME280;6425;50.316;8.114;2023-04-05T09:24:00;996;;;6.8;45.5
12722;BME280;6425;50.316;8.114;2023-04-05T09:27:02;996;;;7.6;44.2
12722;BME280;6425;50.316;8.114;2023-04-05T09:30:00;996;;;7.9;43.6
12722;BME280;6425;50.316;8.114;2023-04-05T09:33:00;996;;;7.3;43
12722;BME280;6425;50.316;8.114;2023-04-05T09:36:00;996;;;7.5;43.5
12722;BME280;6425;50.316;8.114;2023-04-05T09:39:03;996;;;6.7;44.6
12722;BME280;6425;50.316;8.114;2023-04-05T09:42:03;996;;;5.9;46.4
12722;BME280;6425;50.316;8.114;2023-04-05T09:45:00;996;;;6.1;45.8
12722;BME280;6425;50.316;8.114;2023-04-05T09:48:00;996;;;5.8;46.1
12722;BME280;6425;50.316;8.114;2023-04-05T09:51:03;996;;;6.3;46.1
12722;BME280;6425;50.316;8.114;2023-04-05T09:54:01;996;;;6.7;45
12722;BME280;6425;50.316;8.114;2023-04-05T09:57:00;996;;;6.6;44.7
12722;BME280;6425;50.316;8.114;2023-04-05T10:00:00;996;;;5.8;46.2
12722;BME280;6425;50.316;8.114;2023-04-05T10:03:00;996;;;6.7;45.1
12722;BME280;6425;50.316;8.114;2023-04-05T10:06:00;996;;;6.9;43.7
12722;BME280;6425;50.316;8.114;2023-04-05T10:09:00;996;;;6.9;44.6
12722;BME280;6425;50.316;8.114;2023-04-05T10:12:00;996;;;7.1;44.4
12722;BME280;6425;50.316;8.114;2023-04-05T10:15:00;996;;;7.1;44.3
12722;BME280;6425;50.316;8.114;2023-04-05T10:18:02;995;;;6.7;44.7
12722;BME280;6425;50.316;8.114;2023-04-05T10:21:00;996;;;6.4;46.2
12722;BME280;6425;50.316;8.114;2023-04-05T10:24:00;996;;;7.2;44.9
12722;BME280;6425;50.316;8.114;2023-04-05T10:27:03;995;;;8.2;43.6
12722;BME280;6425;50.316;8.114;2023-04-05T10:30:02;995;;;8.8;41.5
12722;BME280;6425;50.316;8.114;2023-04-05T10:33:02;995;;;9;41
12722;BME280;6425;50.316;8.114;2023-04-05T10:36:06;995;;;8.3;42
12722;BME280;6425;50.316;8.114;2023-04-05T10:39:00;995;;;8.1;42.2
12722;BME280;6425;50.316;8.114;2023-04-05T10:42:00;995;;;8.6;41.6
12722;BME280;6425;50.316;8.114;2023-04-05T10:45:02;995;;;8.3;40.3
12722;BME280;6425;50.316;8.114;2023-04-05T10:48:01;995;;;8.6;40.2
12722;BME280;6425;50.316;8.114;2023-04-05T10:51:00;995;;;8.7;40.2
12722;BME280;6425;50.316;8.114;2023-04-05T10:54:00;995;;;9;38.1
12722;BME280;6425;50.316;8.114;2023-04-05T10:57:00;995;;;7.1;41.9
12722;BME280;6425;50.316;8.114;2023-04-05T11:00:00;995;;;7.3;43.5
12722;BME280;6425;50.316;8.114;2023-04-05T11:03:00;995;;;6.6;41
12722;BME280;6425;50.316;8.114;2023-04-05T11:06:16;995;;;6.7;42.9
12722;BME280;6425;50.316;8.114;2023-04-05T11:09:09;995;;;7.1;43
12722;BME280;6425;50.316;8.114;2023-04-05T11:12:00;995;;;8.3;40.1
12722;BME280;6425;50.316;8.114;2023-04-05T11:15:21;995;;;8.5;39.5
12722;BME280;6425;50.316;8.114;2023-04-05T11:18:02;995;;;8.6;37.8
12722;BME280;6425;50.316;8.114;2023-04-05T11:21:04;995;;;8.4;39.6
12722;BME280;6425;50.316;8.114;2023-04-05T11:24:01;995;;;8.1;39.7
12722;BME280;6425;50.316;8.114;2023-04-05T11:27:00;995;;;8.1;40.8
12722;BME280;6425;50.316;8.114;2023-04-05T11:30:00;995;;;7.4;42.2
12722;BME280;6425;50.316;8.114;2023-04-05T11:33:00;995;;;7.4;42.5
12722;BME280;6425;50.316;8.114;2023-04-05T11:36:00;995;;;8.4;40.4
12722;BME280;6425;50.316;8.114;2023-04-05T11:39:21;995;;;8.7;40
12722;BME280;6425;50.316;8.114;2023-04-05T11:42:00;995;;;9.4;38.3
12722;BME280;6425;50.316;8.114;2023-04-05T11:45:00;995;;;9.7;36.1
12722;BME280;6425;50.316;8.114;2023-04-05T11:48:03;995;;;9.4;36.7
12722;BME280;6425;50.316;8.114;2023-04-05T11:51:00;995;;;9.2;37.3
12722;BME280;6425;50.316;8.114;2023-04-05T11:54:00;995;;;10;36.5
12722;BME280;6425;50.316;8.114;2023-04-05T11:57:00;995;;;10;36.5
12722;BME280;6425;50.316;8.114;2023-04-05T12:00:00;994;;;7.6;40.3
12722;BME280;6425;50.316;8.114;2023-04-05T12:03:00;995;;;9.3;38.9
12722;BME280;6425;50.316;8.114;2023-04-05T12:06:00;995;;;9.4;36.9
12722;BME280;6425;50.316;8.114;2023-04-05T12:09:00;995;;;7.5;39.1
12722;BME280;6425;50.316;8.114;2023-04-05T12:12:00;995;;;7.6;41
12722;BME280;6425;50.316;8.114;2023-04-05T12:15:00;995;;;7.9;40.4
12722;BME280;6425;50.316;8.114;2023-04-05T12:18:00;994;;;8.4;39.5
12722;BME280;6425;50.316;8.114;2023-04-05T12:21:00;995;;;9.3;37.5
12722;BME280;6425;50.316;8.114;2023-04-05T12:24:00;994;;;9.4;37.8
12722;BME280;6425;50.316;8.114;2023-04-05T12:27:00;995;;;9.2;37.8
12722;BME280;6425;50.316;8.114;2023-04-05T12:30:04;994;;;9.6;37.3
12722;BME280;6425;50.316;8.114;2023-04-05T12:33:00;995;;;9.5;37.1
12722;BME280;6425;50.316;8.114;2023-04-05T12:36:03;994;;;10.2;37.7
12722;BME280;6425;50.316;8.114;2023-04-05T12:39:00;995;;;8.6;39.3
12722;BME280;6425;50.316;8.114;2023-04-05T12:42:00;994;;;7.8;41.8
12722;BME280;6425;50.316;8.114;2023-04-05T12:45:01;994;;;7.8;40.5
12722;BME280;6425;50.316;8.114;2023-04-05T12:48:00;994;;;8.1;40.8
12722;BME280;6425;50.316;8.114;2023-04-05T12:51:00;994;;;7.9;42.2
12722;BME280;6425;50.316;8.114;2023-04-05T12:54:00;994;;;8.9;38.4
12722;BME280;6425;50.316;8.114;2023-04-05T12:57:00;994;;;9.7;36.7
12722;BME280;6425;50.316;8.114;2023-04-05T13:00:00;994;;;8.8;37.6
12722;BME280;6425;50.316;8.114;2023-04-05T13:03:00;994;;;8.6;39.8
12722;BME280;6425;50.316;8.114;2023-04-05T13:06:00;994;;;9.5;38.1
12722;BME280;6425;50.316;8.114;2023-04-05T13:09:00;994;;;10.4;35.8
12722;BME280;6425;50.316;8.114;2023-04-05T13:12:00;994;;;10.7;34.9
12722;BME280;6425;50.316;8.114;2023-04-05T13:15:00;994;;;10.6;35.6
12722;BME280;6425;50.316;8.114;2023-04-05T13:18:00;994;;;8.8;36.5
12722;BME280;6425;50.316;8.114;2023-04-05T13:21:00;994;;;8.4;38.8
12722;BME280;6425;50.316;8.114;2023-04-05T13:24:00;994;;;8.1;38.1
12722;BME280;6425;50.316;8.114;2023-04-05T13:27:00;994;;;8.7;36.6
12722;BME280;6425;50.316;8.114;2023-04-05T13:30:00;994;;;9.9;33.7
12722;BME280;6425;50.316;8.114;2023-04-05T13:33:00;994;;;10.7;32.6
12722;BME280;6425;50.316;8.114;2023-04-05T13:36:00;994;;;9.6;35.1
12722;BME280;6425;50.316;8.114;2023-04-05T13:39:00;994;;;9.9;33.3
12722;BME280;6425;50.316;8.114;2023-04-05T13:42:00;994;;;10.4;32
12722;BME280;6425;50.316;8.114;2023-04-05T13:45:00;994;;;10.8;31.7
12722;BME280;6425;50.316;8.114;2023-04-05T13:48:00;994;;;11.6;30.1
12722;BME280;6425;50.316;8.114;2023-04-05T13:51:00;994;;;12.2;31
12722;BME280;6425;50.316;8.114;2023-04-05T13:54:00;994;;;9.3;35.3
12722;BME280;6425;50.316;8.114;2023-04-05T13:57:00;994;;;8.8;36.1
12722;BME280;6425;50.316;8.114;2023-04-05T14:00:00;994;;;9.4;35.8
12722;BME280;6425;50.316;8.114;2023-04-05T14:03:00;994;;;10.6;33.1
12722;BME280;6425;50.316;8.114;2023-04-05T14:06:00;994;;;11.7;31.7
12722;BME280;6425;50.316;8.114;2023-04-05T14:09:00;994;;;11.8;31.4
12722;BME280;6425;50.316;8.114;2023-04-05T14:12:00;994;;;11.4;31.1
12722;BME280;6425;50.316;8.114;2023-04-05T14:15:00;994;;;11.1;31.4
12722;BME280;6425;50.316;8.114;2023-04-05T14:18:00;994;;;10.8;32.5
12722;BME280;6425;50.316;8.114;2023-04-05T14:21:00;994;;;9.5;34.3
12722;BME280;6425;50.316;8.114;2023-04-05T14:24:00;993;;;9.5;33.1
12722;BME280;6425;50.316;8.114;2023-04-05T14:27:00;994;;;8.5;33.4
12722;BME280;6425;50.316;8.114;2023-04-05T14:30:00;993;;;9.1;33.5
12722;BME280;6425;50.316;8.114;2023-04-05T14:33:00;993;;;10.7;31.2
12722;BME280;6425;50.316;8.114;2023-04-05T14:36:00;993;;;12.2;28.7
12722;BME280;6425;50.316;8.114;2023-04-05T14:39:00;993;;;11.9;28.2
12722;BME280;6425;50.316;8.114;2023-04-05T14:42:00;993;;;11.5;29.8
12722;BME280;6425;50.316;8.114;2023-04-05T14:45:00;993;;;11.2;29.2
12722;BME280;6425;50.316;8.114;2023-04-05T14:48:00;993;;;10.6;30.1
12722;BME280;6425;50.316;8.114;2023-04-05T14:51:00;993;;;10.5;31.1
12722;BME280;6425;50.316;8.114;2023-04-05T14:54:00;993;;;11.4;28.6
12722;BME280;6425;50.316;8.114;2023-04-05T14:57:00;993;;;12.4;27.6
12722;BME280;6425;50.316;8.114;2023-04-05T15:00:00;993;;;12.5;27.7
12722;BME280;6425;50.316;8.114;2023-04-05T15:03:00;993;;;12.3;28
12722;BME280;6425;50.316;8.114;2023-04-05T15:06:00;993;;;12.6;27
12722;BME280;6425;50.316;8.114;2023-04-05T15:09:00;993;;;11.7;27.9
12722;BME280;6425;50.316;8.114;2023-04-05T15:12:00;993;;;12;27.7
12722;BME280;6425;50.316;8.114;2023-04-05T15:15:00;993;;;12;27.7
12722;BME280;6425;50.316;8.114;2023-04-05T15:18:00;993;;;11.7;27.7
12722;BME280;6425;50.316;8.114;2023-04-05T15:21:00;993;;;11.4;28.6
12722;BME280;6425;50.316;8.114;2023-04-05T15:24:00;993;;;10.7;29
12722;BME280;6425;50.316;8.114;2023-04-05T15:27:00;993;;;9.9;30.1
12722;BME280;6425;50.316;8.114;2023-04-05T15:30:00;993;;;10.9;29.6
12722;BME280;6425;50.316;8.114;2023-04-05T15:33:00;993;;;11.6;28.8
12722;BME280;6425;50.316;8.114;2023-04-05T15:36:00;993;;;12.6;28.5
12722;BME280;6425;50.316;8.114;2023-04-05T15:39:00;993;;;13.5;27.2
12722;BME280;6425;50.316;8.114;2023-04-05T15:42:00;993;;;13.7;26.5
12722;BME280;6425;50.316;8.114;2023-04-05T15:45:00;993;;;12.6;27
12722;BME280;6425;50.316;8.114;2023-04-05T15:48:00;993;;;10.8;28.8
12722;BME280;6425;50.316;8.114;2023-04-05T15:51:00;993;;;10.2;29.3
12722;BME280;6425;50.316;8.114;2023-04-05T15:54:00;993;;;10.6;30.3
12722;BME280;6425;50.316;8.114;2023-04-05T15:57:00;993;;;11.5;29.3
12722;BME280;6425;50.316;8.114;2023-04-05T16:00:00;993;;;12.1;27.7
12722;BME280;6425;50.316;8.114;2023-04-05T16:03:00;993;;;12.4;28.7
12722;BME280;6425;50.316;8.114;2023-04-05T16:06:00;993;;;11.7;28.5
12722;BME280;6425;50.316;8.114;2023-04-05T16:09:00;993;;;11.8;29.6
12722;BME280;6425;50.316;8.114;2023-04-05T16:12:00;993;;;12.4;28.2
12722;BME280;6425;50.316;8.114;2023-04-05T16:15:00;993;;;12.6;28.7
12722;BME280;6425;50.316;8.114;2023-04-05T16:18:00;993;;;12.4;28
12722;BME280;6425;50.316;8.114;2023-04-05T16:21:00;993;;;12.5;28.5
12722;BME280;6425;50.316;8.114;2023-04-05T16:24:00;993;;;13;27.8
12722;BME280;6425;50.316;8.114;2023-04-05T16:27:00;993;;;12.6;28.6
12722;BME280;6425;50.316;8.114;2023-04-05T16:30:00;993;;;12.3;28.9
12722;BME280;6425;50.316;8.114;2023-04-05T16:33:00;993;;;11.9;29
12722;BME280;6425;50.316;8.114;2023-04-05T16:36:00;992;;;12.8;28.4
12722;BME280;6425;50.316;8.114;2023-04-05T16:39:00;992;;;13.7;27
12722;BME280;6425;50.316;8.114;2023-04-05T16:42:00;993;;;13.4;27
12722;BME280;6425;50.316;8.114;2023-04-05T16:45:00;992;;;13.7;27
12722;BME280;6425;50.316;8.114;2023-04-05T16:48:00;992;;;14;26.9
12722;BME280;6425;50.316;8.114;2023-04-05T16:51:00;992;;;13.4;27
12722;BME280;6425;50.316;8.114;2023-04-05T16:54:00;992;;;11.9;29.7
12722;BME280;6425;50.316;8.114;2023-04-05T16:57:00;992;;;11;29.7
12722;BME280;6425;50.316;8.114;2023-04-05T17:00:00;992;;;10.8;30.9
12722;BME280;6425;50.316;8.114;2023-04-05T17:03:00;992;;;11.2;30.8
12722;BME280;6425;50.316;8.114;2023-04-05T17:06:00;993;;;11.6;30.2
12722;BME280;6425;50.316;8.114;2023-04-05T17:09:00;992;;;11.9;29.3
12722;BME280;6425;50.316;8.114;2023-04-05T17:12:00;993;;;12.1;28.8
12722;BME280;6425;50.316;8.114;2023-04-05T17:15:00;993;;;12.1;29.3
12722;BME280;6425;50.316;8.114;2023-04-05T17:18:00;993;;;12.3;29.2
12722;BME280;6425;50.316;8.114;2023-04-05T17:21:00;993;;;12.5;29.8
12722;BME280;6425;50.316;8.114;2023-04-05T17:24:00;993;;;12.1;29.4
12722;BME280;6425;50.316;8.114;2023-04-05T17:27:00;993;;;11.6;29.9
12722;BME280;6425;50.316;8.114;2023-04-05T17:30:00;993;;;11.6;31.2
12722;BME280;6425;50.316;8.114;2023-04-05T17:33:00;993;;;11.7;31
12722;BME280;6425;50.316;8.114;2023-04-05T17:36:00;992;;;11.2;30.4
12722;BME280;6425;50.316;8.114;2023-04-05T17:39:00;992;;;11;32.5
12722;BME280;6425;50.316;8.114;2023-04-05T17:42:00;992;;;10.9;34.6
12722;BME280;6425;50.316;8.114;2023-04-05T17:45:00;992;;;11.1;39
12722;BME280;6425;50.316;8.114;2023-04-05T17:48:00;993;;;10.8;42.2
12722;BME280;6425;50.316;8.114;2023-04-05T17:51:02;993;;;10;44.2
12722;BME280;6425;50.316;8.114;2023-04-05T17:54:00;993;;;9.1;46.8
12722;BME280;6425;50.316;8.114;2023-04-05T17:57:00;992;;;8.2;49.6
12722;BME280;6425;50.316;8.114;2023-04-05T18:00:00;993;;;7.9;51.9